sensor_id;sensor_type;location;lat;lon;timestamp;pressure;altitude;pressure_sealevel;temperature;humidity
21658;BME280;10990;48.174;9.782;2023-12-14T00:00:38;92406.13;;;5.42;100.00
21658;BME280;10990;48.174;9.782;2023-12-14T00:03:07;92410.56;;;5.48;100.00
21658;BME280;10990;48.174;9.782;2023-12-14T00:05:33;92421.84;;;5.35;100.00
21658;BME280;10990;48.174;9.782;2023-12-14T00:07:59;92432.09;;;5.24;100.00
21658;BME280;10990;48.174;9.782;2023-12-14T00:10:24;92433.28;;;5.21;100.00
21658;BME280;10990;48.174;9.782;2023-12-14T00:12:50;92416.38;;;5.30;100.00
21658;BME280;10990;48.174;9.782;2023-12-14T00:15:16;92430.84;;;5.26;100.00
21658;BME280;10990;48.174;9.782;2023-12-14T00:17:42;92437.91;;;5.19;100.00
21658;BME280;10990;48.174;9.782;2023-12-14T00:20:11;92435.28;;;5.19;100.00
21658;BME280;10990;48.174;9.782;2023-12-14T00:22:37;92430.03;;;5.19;100.00
21658;BME280;10990;48.174;9.782;2023-12-14T00:25:04;92432.03;;;5.17;100.00
21658;BME280;10990;48.174;9.782;2023-12-14T00:27:30;92423.63;;;5.28;100.00
21658;BME280;10990;48.174;9.782;2023-12-14T00:29:56;92436.09;;;5.26;100.00
21658;BME280;10990;48.174;9.782;2023-12-14T00:32:22;92438.13;;;5.24;100.00
21658;BME280;10990;48.174;9.782;2023-12-14T00:34:48;92439.53;;;5.27;100.00
21658;BME280;10990;48.174;9.782;2023-12-14T00:37:16;92436.50;;;5.23;100.00
21658;BME280;10990;48.174;9.782;2023-12-14T00:39:42;92447.00;;;5.30;100.00
21658;BME280;10990;48.174;9.782;2023-12-14T00:42:08;92442.75;;;5.29;100.00
21658;BME280;10990;48.174;9.782;2023-12-14T00:44:34;92447.19;;;5.22;100.00
21658;BME280;10990;48.174;9.782;2023-12-14T00:47:00;92441.53;;;5.25;100.00
21658;BME280;10990;48.174;9.782;2023-12-14T00:49:26;92448.22;;;5.34;100.00
21658;BME280;10990;48.174;9.782;2023-12-14T00:51:51;92447.00;;;5.30;100.00
21658;BME280;10990;48.174;9.782;2023-12-14T00:54:20;92454.03;;;5.29;100.00
21658;BME280;10990;48.174;9.782;2023-12-14T00:56:46;92453.06;;;5.37;100.00
21658;BME280;10990;48.174;9.782;2023-12-14T00:59:12;92459.09;;;5.31;100.00
21658;BME280;10990;48.174;9.782;2023-12-14T01:01:37;92465.38;;;5.36;100.00
21658;BME280;10990;48.174;9.782;2023-12-14T01:04:04;92462.75;;;5.43;100.00
21658;BME280;10990;48.174;9.782;2023-12-14T01:06:29;92467.97;;;5.36;100.00
21658;BME280;10990;48.174;9.782;2023-12-14T01:08:55;92477.44;;;5.37;100.00
21658;BME280;10990;48.174;9.782;2023-12-14T01:11:24;92476.47;;;5.38;100.00
21658;BME280;10990;48.174;9.782;2023-12-14T01:13:50;92469.22;;;5.47;100.00
21658;BME280;10990;48.174;9.782;2023-12-14T01:16:16;92484.69;;;5.29;100.00
21658;BME280;10990;48.174;9.782;2023-12-14T01:18:41;92484.09;;;5.33;100.00
21658;BME280;10990;48.174;9.782;2023-12-14T01:21:07;92488.75;;;5.38;100.00
21658;BME280;10990;48.174;9.782;2023-12-14T01:23:33;92493.00;;;5.39;100.00
21658;BME280;10990;48.174;9.782;2023-12-14T01:25:59;92492.38;;;5.37;100.00
21658;BME280;10990;48.174;9.782;2023-12-14T01:28:28;92502.22;;;5.35;100.00
21658;BME280;10990;48.174;9.782;2023-12-14T01:30:53;92514.50;;;5.28;100.00
21658;BME280;10990;48.174;9.782;2023-12-14T01:33:19;92524.13;;;5.21;100.00
21658;BME280;10990;48.174;9.782;2023-12-14T01:35:45;92520.47;;;5.15;100.00
21658;BME280;10990;48.174;9.782;2023-12-14T01:38:11;92527.50;;;5.08;100.00
21658;BME280;10990;48.174;9.782;2023-12-14T01:40:37;92534.19;;;5.10;100.00
21658;BME280;10990;48.174;9.782;2023-12-14T01:43:07;92528.34;;;5.15;100.00
21658;BME280;10990;48.174;9.782;2023-12-14T01:45:36;92536.25;;;5.22;100.00
21658;BME280;10990;48.174;9.782;2023-12-14T01:48:02;92541.50;;;5.22;100.00
21658;BME280;10990;48.174;9.782;2023-12-14T01:50:27;92538.47;;;5.25;100.00
21658;BME280;10990;48.174;9.782;2023-12-14T01:52:53;92543.91;;;5.23;100.00
21658;BME280;10990;48.174;9.782;2023-12-14T01:55:19;92552.09;;;5.07;100.00
21658;BME280;10990;48.174;9.782;2023-12-14T01:57:45;92543.47;;;5.20;100.00
21658;BME280;10990;48.174;9.782;2023-12-14T02:00:19;92555.97;;;5.17;100.00
21658;BME280;10990;48.174;9.782;2023-12-14T02:02:51;92553.03;;;5.34;100.00
21658;BME280;10990;48.174;9.782;2023-12-14T02:05:17;92559.22;;;5.26;100.00
21658;BME280;10990;48.174;9.782;2023-12-14T02:07:43;92561.91;;;5.33;100.00
21658;BME280;10990;48.174;9.782;2023-12-14T02:10:09;92571.53;;;5.26;100.00
21658;BME280;10990;48.174;9.782;2023-12-14T02:12:35;92581.16;;;5.19;100.00
21658;BME280;10990;48.174;9.782;2023-12-14T02:15:00;92577.16;;;5.23;100.00
21658;BME280;10990;48.174;9.782;2023-12-14T02:17:29;92578.94;;;5.15;100.00
21658;BME280;10990;48.174;9.782;2023-12-14T02:19:57;92581.22;;;5.32;100.00
21658;BME280;10990;48.174;9.782;2023-12-14T02:22:23;92584.47;;;5.34;100.00
21658;BME280;10990;48.174;9.782;2023-12-14T02:24:54;92596.91;;;5.25;100.00
21658;BME280;10990;48.174;9.782;2023-12-14T02:27:20;92593.91;;;5.28;100.00
21658;BME280;10990;48.174;9.782;2023-12-14T02:29:46;92604.97;;;5.24;100.00
21658;BME280;10990;48.174;9.782;2023-12-14T02:32:11;92591.69;;;5.25;100.00
21658;BME280;10990;48.174;9.782;2023-12-14T02:34:37;92594.78;;;5.35;100.00
21658;BME280;10990;48.174;9.782;2023-12-14T02:37:04;92596.56;;;5.35;100.00
21658;BME280;10990;48.174;9.782;2023-12-14T02:39:29;92606.22;;;5.34;100.00
21658;BME280;10990;48.174;9.782;2023-12-14T02:41:58;92607.66;;;5.37;100.00
21658;BME280;10990;48.174;9.782;2023-12-14T02:44:24;92606.06;;;5.43;100.00
21658;BME280;10990;48.174;9.782;2023-12-14T02:46:50;92607.03;;;5.35;100.00
21658;BME280;10990;48.174;9.782;2023-12-14T02:49:15;92612.88;;;5.30;100.00
21658;BME280;10990;48.174;9.782;2023-12-14T02:51:41;92616.47;;;5.29;100.00
21658;BME280;10990;48.174;9.782;2023-12-14T02:54:07;92627.56;;;5.25;100.00
21658;BME280;10990;48.174;9.782;2023-12-14T02:56:33;92624.72;;;5.26;100.00
21658;BME280;10990;48.174;9.782;2023-12-14T02:59:03;92624.94;;;5.25;100.00
21658;BME280;10990;48.174;9.782;2023-12-14T03:01:29;92623.16;;;5.32;100.00
21658;BME280;10990;48.174;9.782;2023-12-14T03:03:54;92623.16;;;5.32;100.00
21658;BME280;10990;48.174;9.782;2023-12-14T03:06:20;92633.03;;;5.30;100.00
21658;BME280;10990;48.174;9.782;2023-12-14T03:08:46;92636.03;;;5.27;100.00
21658;BME280;10990;48.174;9.782;2023-12-14T03:11:21;92638.22;;;5.23;100.00
21658;BME280;10990;48.174;9.782;2023-12-14T03:13:47;92641.41;;;5.19;100.00
21658;BME280;10990;48.174;9.782;2023-12-14T03:16:15;92635.81;;;5.28;100.00
21658;BME280;10990;48.174;9.782;2023-12-14T03:18:41;92649.81;;;5.07;100.00
21658;BME280;10990;48.174;9.782;2023-12-14T03:21:07;92645.88;;;5.25;100.00
21658;BME280;10990;48.174;9.782;2023-12-14T03:23:33;92640.06;;;5.29;100.00
21658;BME280;10990;48.174;9.782;2023-12-14T03:25:59;92643.06;;;5.26;100.00
21658;BME280;10990;48.174;9.782;2023-12-14T03:28:25;92660.75;;;5.17;100.00
21658;BME280;10990;48.174;9.782;2023-12-14T03:30:51;92656.38;;;5.25;100.00
21658;BME280;10990;48.174;9.782;2023-12-14T03:33:19;92655.19;;;5.27;100.00
21658;BME280;10990;48.174;9.782;2023-12-14T03:35:45;92663.16;;;5.12;100.00
21658;BME280;10990;48.174;9.782;2023-12-14T03:38:11;92665.16;;;5.17;100.00
21658;BME280;10990;48.174;9.782;2023-12-14T03:40:37;92664.38;;;5.16;100.00
21658;BME280;10990;48.174;9.782;2023-12-14T03:43:03;92655.94;;;5.21;100.00
21658;BME280;10990;48.174;9.782;2023-12-14T03:45:29;92660.69;;;5.11;100.00
21658;BME280;10990;48.174;9.782;2023-12-14T03:47:55;92662.50;;;5.10;100.00
21658;BME280;10990;48.174;9.782;2023-12-14T03:50:23;92662.94;;;5.14;100.00
21658;BME280;10990;48.174;9.782;2023-12-14T03:52:49;92662.91;;;5.07;100.00
21658;BME280;10990;48.174;9.782;2023-12-14T03:55:15;92671.72;;;5.06;100.00
21658;BME280;10990;48.174;9.782;2023-12-14T03:57:41;92674.13;;;5.01;100.00
21658;BME280;10990;48.174;9.782;2023-12-14T04:00:10;92672.75;;;5.05;100.00
21658;BME280;10990;48.174;9.782;2023-12-14T04:02:36;92677.22;;;5.11;100.00
21658;BME280;10990;48.174;9.782;2023-12-14T04:05:04;92672.78;;;5.12;100.00
21658;BME280;10990;48.174;9.782;2023-12-14T04:07:33;92684.94;;;5.20;100.00
21658;BME280;10990;48.174;9.782;2023-12-14T04:09:59;92687.38;;;5.21;100.00
21658;BME280;10990;48.174;9.782;2023-12-14T04:12:25;92700.41;;;5.14;100.00
21658;BME280;10990;48.174;9.782;2023-12-14T04:14:50;92699.22;;;5.17;100.00
21658;BME280;10990;48.174;9.782;2023-12-14T04:17:16;92699.66;;;5.21;100.00
21658;BME280;10990;48.174;9.782;2023-12-14T04:19:42;92701.03;;;5.16;100.00
21658;BME280;10990;48.174;9.782;2023-12-14T04:22:08;92700.25;;;5.16;100.00
21658;BME280;10990;48.174;9.782;2023-12-14T04:24:37;92713.47;;;5.08;100.00
21658;BME280;10990;48.174;9.782;2023-12-14T04:27:03;92713.09;;;5.11;100.00
21658;BME280;10990;48.174;9.782;2023-12-14T04:29:29;92709.31;;;5.20;100.00
21658;BME280;10990;48.174;9.782;2023-12-14T04:31:55;92713.72;;;5.13;100.00
21658;BME280;10990;48.174;9.782;2023-12-14T04:34:21;92726.19;;;5.11;100.00
21658;BME280;10990;48.174;9.782;2023-12-14T04:36:48;92725.63;;;5.15;100.00
21658;BME280;10990;48.174;9.782;2023-12-14T04:39:14;92725.00;;;5.13;100.00
21658;BME280;10990;48.174;9.782;2023-12-14T04:41:43;92734.28;;;5.16;100.00
21658;BME280;10990;48.174;9.782;2023-12-14T04:44:09;92728.00;;;5.10;100.00
21658;BME280;10990;48.174;9.782;2023-12-14T04:46:35;92741.84;;;5.04;100.00
21658;BME280;10990;48.174;9.782;2023-12-14T04:49:02;92740.03;;;5.05;100.00
21658;BME280;10990;48.174;9.782;2023-12-14T04:51:29;92742.28;;;5.08;100.00
21658;BME280;10990;48.174;9.782;2023-12-14T04:53:55;92746.50;;;5.09;100.00
21658;BME280;10990;48.174;9.782;2023-12-14T04:56:21;92751.63;;;5.17;100.00
21658;BME280;10990;48.174;9.782;2023-12-14T04:58:49;92765.09;;;5.14;100.00
21658;BME280;10990;48.174;9.782;2023-12-14T05:01:15;92764.09;;;5.15;100.00
21658;BME280;10990;48.174;9.782;2023-12-14T05:03:41;92769.78;;;5.19;100.00
21658;BME280;10990;48.174;9.782;2023-12-14T05:06:07;92773.59;;;5.16;100.00
21658;BME280;10990;48.174;9.782;2023-12-14T05:08:33;92780.00;;;5.13;100.00
21658;BME280;10990;48.174;9.782;2023-12-14T05:10:59;92777.25;;;5.22;100.00
21658;BME280;10990;48.174;9.782;2023-12-14T05:13:25;92797.28;;;5.08;100.00
21658;BME280;10990;48.174;9.782;2023-12-14T05:15:54;92805.09;;;5.01;100.00
21658;BME280;10990;48.174;9.782;2023-12-14T05:18:20;92800.91;;;5.07;100.00
21658;BME280;10990;48.174;9.782;2023-12-14T05:20:46;92799.09;;;5.07;100.00
21658;BME280;10990;48.174;9.782;2023-12-14T05:23:12;92801.25;;;5.04;100.00
21658;BME280;10990;48.174;9.782;2023-12-14T05:25:38;92803.97;;;5.10;100.00
21658;BME280;10990;48.174;9.782;2023-12-14T05:28:04;92814.19;;;5.05;100.00
21658;BME280;10990;48.174;9.782;2023-12-14T05:30:30;92818.59;;;5.05;100.00
21658;BME280;10990;48.174;9.782;2023-12-14T05:32:59;92813.84;;;5.15;100.00
21658;BME280;10990;48.174;9.782;2023-12-14T05:35:25;92815.06;;;5.12;100.00
21658;BME280;10990;48.174;9.782;2023-12-14T05:37:51;92836.94;;;5.05;100.00
21658;BME280;10990;48.174;9.782;2023-12-14T05:40:17;92827.16;;;5.13;100.00
21658;BME280;10990;48.174;9.782;2023-12-14T05:42:43;92826.72;;;5.10;100.00
21658;BME280;10990;48.174;9.782;2023-12-14T05:45:10;92829.16;;;5.11;100.00
21658;BME280;10990;48.174;9.782;2023-12-14T05:47:36;92836.56;;;5.08;100.00
21658;BME280;10990;48.174;9.782;2023-12-14T05:50:06;92840.44;;;5.12;100.00
21658;BME280;10990;48.174;9.782;2023-12-14T05:52:32;92846.13;;;5.15;100.00
21658;BME280;10990;48.174;9.782;2023-12-14T05:54:58;92856.03;;;5.20;100.00
21658;BME280;10990;48.174;9.782;2023-12-14T05:57:24;92853.16;;;5.15;100.00
21658;BME280;10990;48.174;9.782;2023-12-14T05:59:50;92866.25;;;5.15;100.00
21658;BME280;10990;48.174;9.782;2023-12-14T06:02:16;92865.91;;;5.18;100.00
21658;BME280;10990;48.174;9.782;2023-12-14T06:04:42;92876.81;;;5.22;100.00
21658;BME280;10990;48.174;9.782;2023-12-14T06:07:10;92877.34;;;5.17;100.00
21658;BME280;10990;48.174;9.782;2023-12-14T06:09:36;92889.28;;;5.20;100.00
21658;BME280;10990;48.174;9.782;2023-12-14T06:12:03;92882.53;;;5.32;100.00
21658;BME280;10990;48.174;9.782;2023-12-14T06:14:30;92894.78;;;5.25;100.00
21658;BME280;10990;48.174;9.782;2023-12-14T06:16:56;92902.44;;;5.26;100.00
21658;BME280;10990;48.174;9.782;2023-12-14T06:19:22;92910.50;;;5.25;100.00
21658;BME280;10990;48.174;9.782;2023-12-14T06:21:48;92914.41;;;5.14;100.00
21658;BME280;10990;48.174;9.782;2023-12-14T06:24:17;92923.28;;;5.13;100.00
21658;BME280;10990;48.174;9.782;2023-12-14T06:26:43;92923.88;;;5.15;100.00
21658;BME280;10990;48.174;9.782;2023-12-14T06:29:09;92922.34;;;5.21;100.00
21658;BME280;10990;48.174;9.782;2023-12-14T06:31:36;92934.72;;;5.27;100.00
21658;BME280;10990;48.174;9.782;2023-12-14T06:34:02;92938.88;;;5.21;100.00
21658;BME280;10990;48.174;9.782;2023-12-14T06:36:27;92936.38;;;5.13;100.00
21658;BME280;10990;48.174;9.782;2023-12-14T06:38:53;92942.41;;;5.13;100.00
21658;BME280;10990;48.174;9.782;2023-12-14T06:41:23;92941.78;;;5.11;100.00
21658;BME280;10990;48.174;9.782;2023-12-14T06:43:49;92937.97;;;5.14;100.00
21658;BME280;10990;48.174;9.782;2023-12-14T06:46:16;92944.28;;;5.20;100.00
21658;BME280;10990;48.174;9.782;2023-12-14T06:48:42;92940.88;;;5.19;100.00
21658;BME280;10990;48.174;9.782;2023-12-14T06:51:08;92951.00;;;5.07;100.00
21658;BME280;10990;48.174;9.782;2023-12-14T06:53:34;92946.59;;;5.08;100.00
21658;BME280;10990;48.174;9.782;2023-12-14T06:56:00;92942.22;;;5.15;100.00
21658;BME280;10990;48.174;9.782;2023-12-14T06:58:29;92951.28;;;5.12;100.00
21658;BME280;10990;48.174;9.782;2023-12-14T07:00:55;92949.00;;;5.09;100.00
21658;BME280;10990;48.174;9.782;2023-12-14T07:03:21;92962.28;;;5.08;100.00
21658;BME280;10990;48.174;9.782;2023-12-14T07:05:47;92957.50;;;5.11;100.00
21658;BME280;10990;48.174;9.782;2023-12-14T07:08:13;92960.22;;;5.18;100.00
21658;BME280;10990;48.174;9.782;2023-12-14T07:10:41;92960.38;;;5.16;100.00
21658;BME280;10990;48.174;9.782;2023-12-14T07:13:07;92959.91;;;5.28;100.00
21658;BME280;10990;48.174;9.782;2023-12-14T07:15:36;92965.69;;;5.23;100.00
21658;BME280;10990;48.174;9.782;2023-12-14T07:18:02;92971.47;;;5.33;100.00
21658;BME280;10990;48.174;9.782;2023-12-14T07:20:28;92979.25;;;5.27;100.00
21658;BME280;10990;48.174;9.782;2023-12-14T07:22:54;92980.56;;;5.37;100.00
21658;BME280;10990;48.174;9.782;2023-12-14T07:25:20;92985.38;;;5.34;100.00
21658;BME280;10990;48.174;9.782;2023-12-14T07:27:46;92989.44;;;5.36;100.00
21658;BME280;10990;48.174;9.782;2023-12-14T07:30:13;92998.78;;;5.24;100.00
21658;BME280;10990;48.174;9.782;2023-12-14T07:32:41;92999.00;;;5.29;100.00
21658;BME280;10990;48.174;9.782;2023-12-14T07:35:08;92996.41;;;5.29;100.00
21658;BME280;10990;48.174;9.782;2023-12-14T07:37:34;92996.50;;;5.36;100.00
21658;BME280;10990;48.174;9.782;2023-12-14T07:40:00;93011.94;;;5.31;100.00
21658;BME280;10990;48.174;9.782;2023-12-14T07:42:26;93009.06;;;5.26;100.00
21658;BME280;10990;48.174;9.782;2023-12-14T07:44:52;92998.31;;;5.35;100.00
21658;BME280;10990;48.174;9.782;2023-12-14T07:47:18;92999.44;;;5.48;100.00
21658;BME280;10990;48.174;9.782;2023-12-14T07:49:46;93013.28;;;5.42;100.00
21658;BME280;10990;48.174;9.782;2023-12-14T07:52:12;93012.66;;;5.39;100.00
21658;BME280;10990;48.174;9.782;2023-12-14T07:54:38;93015.28;;;5.39;100.00
21658;BME280;10990;48.174;9.782;2023-12-14T07:57:05;93030.28;;;5.31;100.00
21658;BME280;10990;48.174;9.782;2023-12-14T07:59:31;93027.94;;;5.36;100.00
21658;BME280;10990;48.174;9.782;2023-12-14T08:01:56;93021.66;;;5.52;100.00
21658;BME280;10990;48.174;9.782;2023-12-14T08:04:23;93032.34;;;5.50;100.00
21658;BME280;10990;48.174;9.782;2023-12-14T08:06:51;93028.97;;;5.56;100.00
21658;BME280;10990;48.174;9.782;2023-12-14T08:09:17;93028.25;;;5.62;100.00
21658;BME280;10990;48.174;9.782;2023-12-14T08:11:43;93036.09;;;5.62;100.00
21658;BME280;10990;48.174;9.782;2023-12-14T08:14:09;93032.94;;;5.67;100.00
21658;BME280;10990;48.174;9.782;2023-12-14T08:16:35;93035.47;;;5.75;100.00
21658;BME280;10990;48.174;9.782;2023-12-14T08:19:01;93059.09;;;5.60;100.00
21658;BME280;10990;48.174;9.782;2023-12-14T08:21:27;93062.44;;;5.54;100.00
21658;BME280;10990;48.174;9.782;2023-12-14T08:23:56;93076.09;;;5.50;100.00
21658;BME280;10990;48.174;9.782;2023-12-14T08:26:22;93068.31;;;5.56;100.00
21658;BME280;10990;48.174;9.782;2023-12-14T08:28:48;93071.94;;;5.55;100.00
21658;BME280;10990;48.174;9.782;2023-12-14T08:31:14;93083.59;;;5.53;100.00
21658;BME280;10990;48.174;9.782;2023-12-14T08:33:41;93086.66;;;5.56;100.00
21658;BME280;10990;48.174;9.782;2023-12-14T08:36:08;93084.47;;;5.60;100.00
21658;BME280;10990;48.174;9.782;2023-12-14T08:38:34;93086.50;;;5.58;100.00
21658;BME280;10990;48.174;9.782;2023-12-14T08:41:03;93089.13;;;5.58;100.00
21658;BME280;10990;48.174;9.782;2023-12-14T08:43:29;93094.59;;;5.63;100.00
21658;BME280;10990;48.174;9.782;2023-12-14T08:45:55;93089.88;;;5.73;100.00
21658;BME280;10990;48.174;9.782;2023-12-14T08:48:21;93091.97;;;5.78;100.00
21658;BME280;10990;48.174;9.782;2023-12-14T08:50:47;93107.44;;;5.73;100.00
21658;BME280;10990;48.174;9.782;2023-12-14T08:53:13;93104.81;;;5.73;100.00
21658;BME280;10990;48.174;9.782;2023-12-14T08:55:39;93108.44;;;5.72;100.00
21658;BME280;10990;48.174;9.782;2023-12-14T08:58:07;93112.31;;;5.76;100.00
21658;BME280;10990;48.174;9.782;2023-12-14T09:00:33;93111.31;;;5.77;100.00
21658;BME280;10990;48.174;9.782;2023-12-14T09:02:59;93125.59;;;5.74;100.00
21658;BME280;10990;48.174;9.782;2023-12-14T09:05:25;93130.22;;;5.72;100.00
21658;BME280;10990;48.174;9.782;2023-12-14T09:07:51;93137.47;;;5.70;100.00
21658;BME280;10990;48.174;9.782;2023-12-14T09:10:17;93142.69;;;5.70;100.00
21658;BME280;10990;48.174;9.782;2023-12-14T09:12:43;93158.09;;;5.58;100.00
21658;BME280;10990;48.174;9.782;2023-12-14T09:15:12;93154.28;;;5.61;100.00
21658;BME280;10990;48.174;9.782;2023-12-14T09:17:38;93155.16;;;5.68;100.00
21658;BME280;10990;48.174;9.782;2023-12-14T09:20:06;93160.41;;;5.68;100.00
21658;BME280;10990;48.174;9.782;2023-12-14T09:22:32;93155.09;;;5.76;100.00
21658;BME280;10990;48.174;9.782;2023-12-14T09:24:58;93161.50;;;5.74;100.00
21658;BME280;10990;48.174;9.782;2023-12-14T09:27:24;93164.94;;;5.74;100.00
21658;BME280;10990;48.174;9.782;2023-12-14T09:29:50;93180.22;;;5.71;100.00
21658;BME280;10990;48.174;9.782;2023-12-14T09:32:18;93181.03;;;5.71;100.00
21658;BME280;10990;48.174;9.782;2023-12-14T09:34:47;93177.88;;;5.76;100.00
21658;BME280;10990;48.174;9.782;2023-12-14T09:37:13;93184.56;;;5.78;100.00
21658;BME280;10990;48.174;9.782;2023-12-14T09:39:39;93185.28;;;5.87;100.00
21658;BME280;10990;48.174;9.782;2023-12-14T09:42:06;93194.25;;;5.93;100.00
21658;BME280;10990;48.174;9.782;2023-12-14T09:44:33;93200.97;;;5.95;100.00
21658;BME280;10990;48.174;9.782;2023-12-14T09:47:00;93199.13;;;6.11;100.00
21658;BME280;10990;48.174;9.782;2023-12-14T09:49:30;93198.22;;;6.18;100.00
21658;BME280;10990;48.174;9.782;2023-12-14T09:51:56;93198.75;;;6.28;100.00
21658;BME280;10990;48.174;9.782;2023-12-14T09:54:22;93215.06;;;6.09;100.00
21658;BME280;10990;48.174;9.782;2023-12-14T09:56:48;93206.34;;;6.23;100.00
21658;BME280;10990;48.174;9.782;2023-12-14T09:59:14;93220.81;;;6.19;100.00
21658;BME280;10990;48.174;9.782;2023-12-14T10:01:41;93210.75;;;6.38;100.00
21658;BME280;10990;48.174;9.782;2023-12-14T10:04:10;93202.34;;;6.64;100.00
21658;BME280;10990;48.174;9.782;2023-12-14T10:06:40;93216.66;;;6.76;100.00
21658;BME280;10990;48.174;9.782;2023-12-14T10:09:08;93217.78;;;6.88;100.00
21658;BME280;10990;48.174;9.782;2023-12-14T10:11:34;93218.91;;;6.79;100.00
21658;BME280;10990;48.174;9.782;2023-12-14T10:14:00;93221.22;;;6.67;100.00
21658;BME280;10990;48.174;9.782;2023-12-14T10:16:30;93240.88;;;6.42;100.00
21658;BME280;10990;48.174;9.782;2023-12-14T10:18:56;93247.88;;;6.35;100.00
21658;BME280;10990;48.174;9.782;2023-12-14T10:21:22;93248.69;;;6.35;100.00
21658;BME280;10990;48.174;9.782;2023-12-14T10:23:51;93239.34;;;6.47;100.00
21658;BME280;10990;48.174;9.782;2023-12-14T10:26:17;93240.88;;;6.57;100.00
21658;BME280;10990;48.174;9.782;2023-12-14T10:28:43;93253.78;;;6.37;100.00
21658;BME280;10990;48.174;9.782;2023-12-14T10:31:09;93251.50;;;6.48;100.00
21658;BME280;10990;48.174;9.782;2023-12-14T10:33:35;93235.44;;;6.58;100.00
21658;BME280;10990;48.174;9.782;2023-12-14T10:36:02;93255.47;;;6.59;100.00
21658;BME280;10990;48.174;9.782;2023-12-14T10:38:29;93246.91;;;6.72;100.00
21658;BME280;10990;48.174;9.782;2023-12-14T10:41:00;93251.34;;;6.71;100.00
21658;BME280;10990;48.174;9.782;2023-12-14T10:43:27;93263.34;;;6.59;100.00
21658;BME280;10990;48.174;9.782;2023-12-14T10:45:53;93261.69;;;6.73;100.00
21658;BME280;10990;48.174;9.782;2023-12-14T10:48:19;93250.41;;;7.01;100.00
21658;BME280;10990;48.174;9.782;2023-12-14T10:50:46;93259.13;;;7.23;100.00
21658;BME280;10990;48.174;9.782;2023-12-14T10:53:14;93254.13;;;7.49;100.00
21658;BME280;10990;48.174;9.782;2023-12-14T10:55:42;93242.53;;;8.00;100.00
21658;BME280;10990;48.174;9.782;2023-12-14T10:58:11;93246.00;;;8.07;100.00
21658;BME280;10990;48.174;9.782;2023-12-14T11:00:38;93247.28;;;8.18;100.00
21658;BME280;10990;48.174;9.782;2023-12-14T11:03:04;93255.91;;;8.05;100.00
21658;BME280;10990;48.174;9.782;2023-12-14T11:05:33;93265.19;;;7.94;100.00
21658;BME280;10990;48.174;9.782;2023-12-14T11:08:00;93280.31;;;7.85;100.00
21658;BME280;10990;48.174;9.782;2023-12-14T11:10:36;93295.09;;;7.65;100.00
21658;BME280;10990;48.174;9.782;2023-12-14T11:13:06;93299.97;;;7.68;100.00
21658;BME280;10990;48.174;9.782;2023-12-14T11:15:36;93309.69;;;7.68;100.00
21658;BME280;10990;48.174;9.782;2023-12-14T11:18:24;93314.19;;;7.74;100.00
21658;BME280;10990;48.174;9.782;2023-12-14T11:20:51;93316.75;;;7.89;100.00
21658;BME280;10990;48.174;9.782;2023-12-14T11:23:27;93328.84;;;7.83;100.00
21658;BME280;10990;48.174;9.782;2023-12-14T11:25:57;93328.94;;;7.96;100.00
21658;BME280;10990;48.174;9.782;2023-12-14T11:28:23;93332.09;;;7.85;100.00
21658;BME280;10990;48.174;9.782;2023-12-14T11:30:52;93343.59;;;7.77;100.00
21658;BME280;10990;48.174;9.782;2023-12-14T11:33:18;93349.44;;;7.79;100.00
21658;BME280;10990;48.174;9.782;2023-12-14T11:35:44;93363.44;;;7.58;100.00
21658;BME280;10990;48.174;9.782;2023-12-14T11:38:10;93371.13;;;7.60;100.00
21658;BME280;10990;48.174;9.782;2023-12-14T11:40:36;93370.78;;;7.63;100.00
21658;BME280;10990;48.174;9.782;2023-12-14T11:43:03;93383.78;;;7.50;100.00
21658;BME280;10990;48.174;9.782;2023-12-14T11:45:30;93401.25;;;7.36;100.00
21658;BME280;10990;48.174;9.782;2023-12-14T11:47:59;93399.00;;;7.54;100.00
21658;BME280;10990;48.174;9.782;2023-12-14T11:50:27;93397.63;;;7.58;100.00
21658;BME280;10990;48.174;9.782;2023-12-14T11:52:53;93403.31;;;7.62;100.00
21658;BME280;10990;48.174;9.782;2023-12-14T11:55:19;93408.78;;;7.60;100.00
21658;BME280;10990;48.174;9.782;2023-12-14T11:57:47;93417.38;;;7.69;100.00
21658;BME280;10990;48.174;9.782;2023-12-14T12:00:16;93424.69;;;7.74;100.00
21658;BME280;10990;48.174;9.782;2023-12-14T12:02:42;93428.00;;;7.82;100.00
21658;BME280;10990;48.174;9.782;2023-12-14T12:05:11;93426.06;;;7.70;100.00
21658;BME280;10990;48.174;9.782;2023-12-14T12:07:37;93431.72;;;7.67;100.00
21658;BME280;10990;48.174;9.782;2023-12-14T12:10:05;93424.63;;;7.67;100.00
21658;BME280;10990;48.174;9.782;2023-12-14T12:12:33;93433.59;;;7.73;100.00
21658;BME280;10990;48.174;9.782;2023-12-14T12:14:59;93429.03;;;7.81;100.00
21658;BME280;10990;48.174;9.782;2023-12-14T12:17:25;93438.03;;;7.72;100.00
21658;BME280;10990;48.174;9.782;2023-12-14T12:19:51;93453.94;;;7.64;100.00
21658;BME280;10990;48.174;9.782;2023-12-14T12:22:20;93456.47;;;7.72;100.00
21658;BME280;10990;48.174;9.782;2023-12-14T12:24:45;93453.81;;;7.72;100.00
21658;BME280;10990;48.174;9.782;2023-12-14T12:27:11;93453.72;;;7.80;100.00
21658;BME280;10990;48.174;9.782;2023-12-14T12:29:37;93453.81;;;7.72;100.00
21658;BME280;10990;48.174;9.782;2023-12-14T12:32:04;93455.56;;;7.65;100.00
21658;BME280;10990;48.174;9.782;2023-12-14T12:34:30;93458.72;;;7.75;100.00
21658;BME280;10990;48.174;9.782;2023-12-14T12:36:55;93453.13;;;7.85;100.00
21658;BME280;10990;48.174;9.782;2023-12-14T12:39:24;93461.16;;;7.77;100.00
21658;BME280;10990;48.174;9.782;2023-12-14T12:41:50;93460.41;;;7.83;100.00
21658;BME280;10990;48.174;9.782;2023-12-14T12:44:16;93462.56;;;7.94;100.00
21658;BME280;10990;48.174;9.782;2023-12-14T12:46:42;93470.06;;;7.97;100.00
21658;BME280;10990;48.174;9.782;2023-12-14T12:49:08;93474.56;;;7.82;100.00
21658;BME280;10990;48.174;9.782;2023-12-14T12:51:34;93490.97;;;7.84;100.00
21658;BME280;10990;48.174;9.782;2023-12-14T12:54:00;93492.59;;;7.85;100.00
21658;BME280;10990;48.174;9.782;2023-12-14T12:56:29;93496.50;;;7.89;100.00